sensor_id;sensor_type;location;lat;lon;timestamp;P1;durP1;ratioP1;P2;durP2;ratioP2
2486;SDS011;1254;49.144;8.212;2022-12-05T00:01:14;42.13;;;22.27;;
2486;SDS011;1254;49.144;8.212;2022-12-05T00:03:44;33.75;;;20.35;;
2486;SDS011;1254;49.144;8.212;2022-12-05T00:06:13;34.30;;;19.08;;
2486;SDS011;1254;49.144;8.212;2022-12-05T00:08:43;29.80;;;16.95;;
2486;SDS011;1254;49.144;8.212;2022-12-05T00:11:11;36.05;;;18.65;;
2486;SDS011;1254;49.144;8.212;2022-12-05T00:13:41;38.80;;;22.75;;
2486;SDS011;1254;49.144;8.212;2022-12-05T00:16:09;34.95;;;19.45;;
2486;SDS011;1254;49.144;8.212;2022-12-05T00:18:39;37.67;;;18.85;;
2486;SDS011;1254;49.144;8.212;2022-12-05T00:21:10;35.95;;;20.95;;
2486;SDS011;1254;49.144;8.212;2022-12-05T00:23:39;34.45;;;20.33;;
2486;SDS011;1254;49.144;8.212;2022-12-05T00:26:09;34.33;;;20.35;;
2486;SDS011;1254;49.144;8.212;2022-12-05T00:28:38;32.10;;;18.75;;
2486;SDS011;1254;49.144;8.212;2022-12-05T00:31:07;32.53;;;20.00;;
2486;SDS011;1254;49.144;8.212;2022-12-05T00:33:37;33.55;;;19.60;;
2486;SDS011;1254;49.144;8.212;2022-12-05T00:36:06;32.00;;;18.80;;
2486;SDS011;1254;49.144;8.212;2022-12-05T00:38:36;29.50;;;17.25;;
2486;SDS011;1254;49.144;8.212;2022-12-05T00:41:05;45.28;;;23.42;;
2486;SDS011;1254;49.144;8.212;2022-12-05T00:43:35;40.75;;;22.98;;
2486;SDS011;1254;49.144;8.212;2022-12-05T00:46:05;40.05;;;19.65;;
2486;SDS011;1254;49.144;8.212;2022-12-05T00:48:34;32.38;;;18.98;;
2486;SDS011;1254;49.144;8.212;2022-12-05T00:51:03;32.28;;;18.60;;
2486;SDS011;1254;49.144;8.212;2022-12-05T00:53:33;32.20;;;19.13;;
2486;SDS011;1254;49.144;8.212;2022-12-05T00:56:01;31.67;;;17.75;;
2486;SDS011;1254;49.144;8.212;2022-12-05T00:58:30;31.40;;;17.77;;
2486;SDS011;1254;49.144;8.212;2022-12-05T01:01:05;27.80;;;17.20;;
2486;SDS011;1254;49.144;8.212;2022-12-05T01:03:33;34.03;;;17.48;;
2486;SDS011;1254;49.144;8.212;2022-12-05T01:06:01;30.08;;;17.33;;
2486;SDS011;1254;49.144;8.212;2022-12-05T01:08:31;29.67;;;17.48;;
2486;SDS011;1254;49.144;8.212;2022-12-05T01:10:59;29.30;;;18.10;;
2486;SDS011;1254;49.144;8.212;2022-12-05T01:13:29;31.30;;;17.65;;
2486;SDS011;1254;49.144;8.212;2022-12-05T01:15:57;34.75;;;17.70;;
2486;SDS011;1254;49.144;8.212;2022-12-05T01:18:26;29.70;;;18.70;;
2486;SDS011;1254;49.144;8.212;2022-12-05T01:20:55;27.55;;;17.08;;
2486;SDS011;1254;49.144;8.212;2022-12-05T01:23:23;30.23;;;18.08;;
2486;SDS011;1254;49.144;8.212;2022-12-05T01:25:51;32.25;;;17.77;;
2486;SDS011;1254;49.144;8.212;2022-12-05T01:28:19;31.38;;;17.30;;
2486;SDS011;1254;49.144;8.212;2022-12-05T01:30:48;32.67;;;18.88;;
2486;SDS011;1254;49.144;8.212;2022-12-05T01:33:16;29.00;;;17.15;;
2486;SDS011;1254;49.144;8.212;2022-12-05T01:35:45;33.20;;;18.27;;
2486;SDS011;1254;49.144;8.212;2022-12-05T01:38:13;34.80;;;17.85;;
2486;SDS011;1254;49.144;8.212;2022-12-05T01:40:41;31.08;;;17.77;;
2486;SDS011;1254;49.144;8.212;2022-12-05T01:43:10;29.27;;;16.88;;
2486;SDS011;1254;49.144;8.212;2022-12-05T01:45:42;32.05;;;18.35;;
2486;SDS011;1254;49.144;8.212;2022-12-05T01:48:12;33.25;;;18.50;;
2486;SDS011;1254;49.144;8.212;2022-12-05T01:50:45;30.52;;;17.77;;
2486;SDS011;1254;49.144;8.212;2022-12-05T01:53:15;40.42;;;20.23;;
2486;SDS011;1254;49.144;8.212;2022-12-05T01:55:44;37.05;;;20.23;;
2486;SDS011;1254;49.144;8.212;2022-12-05T01:58:14;32.05;;;18.10;;
2486;SDS011;1254;49.144;8.212;2022-12-05T02:00:43;31.95;;;18.10;;
2486;SDS011;1254;49.144;8.212;2022-12-05T02:03:12;29.00;;;17.50;;
2486;SDS011;1254;49.144;8.212;2022-12-05T02:05:46;27.48;;;17.55;;
2486;SDS011;1254;49.144;8.212;2022-12-05T02:08:17;34.35;;;18.00;;
2486;SDS011;1254;49.144;8.212;2022-12-05T02:10:46;38.33;;;18.50;;
2486;SDS011;1254;49.144;8.212;2022-12-05T02:13:22;38.35;;;18.90;;
2486;SDS011;1254;49.144;8.212;2022-12-05T02:16:19;38.60;;;19.08;;
2486;SDS011;1254;49.144;8.212;2022-12-05T02:18:57;36.35;;;20.35;;
2486;SDS011;1254;49.144;8.212;2022-12-05T02:21:39;43.63;;;20.98;;
2486;SDS011;1254;49.144;8.212;2022-12-05T02:24:41;47.22;;;21.33;;
2486;SDS011;1254;49.144;8.212;2022-12-05T02:27:39;37.03;;;19.10;;
2486;SDS011;1254;49.144;8.212;2022-12-05T02:30:35;50.33;;;20.08;;
2486;SDS011;1254;49.144;8.212;2022-12-05T02:33:09;45.13;;;21.23;;
2486;SDS011;1254;49.144;8.212;2022-12-05T02:35:47;59.05;;;23.58;;
2486;SDS011;1254;49.144;8.212;2022-12-05T02:38:23;53.67;;;23.08;;
2486;SDS011;1254;49.144;8.212;2022-12-05T02:40:59;51.22;;;21.85;;
2486;SDS011;1254;49.144;8.212;2022-12-05T02:43:35;53.10;;;22.45;;
2486;SDS011;1254;49.144;8.212;2022-12-05T02:46:09;53.05;;;23.40;;
2486;SDS011;1254;49.144;8.212;2022-12-05T02:48:40;56.45;;;22.75;;
2486;SDS011;1254;49.144;8.212;2022-12-05T02:51:12;96.40;;;25.40;;
2486;SDS011;1254;49.144;8.212;2022-12-05T02:53:43;71.30;;;24.50;;
2486;SDS011;1254;49.144;8.212;2022-12-05T02:56:12;72.63;;;24.88;;
2486;SDS011;1254;49.144;8.212;2022-12-05T02:58:43;96.60;;;25.55;;
2486;SDS011;1254;49.144;8.212;2022-12-05T03:01:18;79.65;;;24.35;;
2486;SDS011;1254;49.144;8.212;2022-12-05T03:03:48;81.78;;;25.00;;
2486;SDS011;1254;49.144;8.212;2022-12-05T03:06:16;73.60;;;24.63;;
2486;SDS011;1254;49.144;8.212;2022-12-05T03:08:49;68.30;;;25.58;;
2486;SDS011;1254;49.144;8.212;2022-12-05T03:11:22;75.00;;;25.88;;
2486;SDS011;1254;49.144;8.212;2022-12-05T03:13:50;71.53;;;25.45;;
2486;SDS011;1254;49.144;8.212;2022-12-05T03:16:23;71.38;;;26.73;;
2486;SDS011;1254;49.144;8.212;2022-12-05T03:18:57;68.88;;;23.85;;
2486;SDS011;1254;49.144;8.212;2022-12-05T03:21:29;74.40;;;24.65;;
2486;SDS011;1254;49.144;8.212;2022-12-05T03:24:02;67.95;;;24.60;;
2486;SDS011;1254;49.144;8.212;2022-12-05T03:26:36;64.97;;;23.50;;
2486;SDS011;1254;49.144;8.212;2022-12-05T03:29:17;65.57;;;24.35;;
2486;SDS011;1254;49.144;8.212;2022-12-05T03:31:53;70.00;;;25.58;;
2486;SDS011;1254;49.144;8.212;2022-12-05T03:34:31;81.60;;;25.08;;
2486;SDS011;1254;49.144;8.212;2022-12-05T03:37:10;82.45;;;26.92;;
2486;SDS011;1254;49.144;8.212;2022-12-05T03:39:46;80.03;;;30.92;;
2486;SDS011;1254;49.144;8.212;2022-12-05T03:42:17;70.50;;;26.38;;
2486;SDS011;1254;49.144;8.212;2022-12-05T03:44:55;67.75;;;26.13;;
2486;SDS011;1254;49.144;8.212;2022-12-05T03:47:30;59.15;;;25.17;;
2486;SDS011;1254;49.144;8.212;2022-12-05T03:50:05;51.40;;;23.00;;
2486;SDS011;1254;49.144;8.212;2022-12-05T03:52:38;59.30;;;25.05;;
2486;SDS011;1254;49.144;8.212;2022-12-05T03:55:09;65.45;;;25.67;;
2486;SDS011;1254;49.144;8.212;2022-12-05T03:57:41;78.88;;;26.05;;
2486;SDS011;1254;49.144;8.212;2022-12-05T04:00:12;67.10;;;23.85;;
2486;SDS011;1254;49.144;8.212;2022-12-05T04:02:46;64.22;;;23.65;;
2486;SDS011;1254;49.144;8.212;2022-12-05T04:05:20;54.90;;;21.75;;
2486;SDS011;1254;49.144;8.212;2022-12-05T04:07:50;63.78;;;21.63;;
2486;SDS011;1254;49.144;8.212;2022-12-05T04:10:23;53.38;;;21.80;;
2486;SDS011;1254;49.144;8.212;2022-12-05T04:12:54;51.67;;;22.35;;
2486;SDS011;1254;49.144;8.212;2022-12-05T04:15:43;47.67;;;21.85;;
2486;SDS011;1254;49.144;8.212;2022-12-05T04:18:43;54.55;;;20.65;;
2486;SDS011;1254;49.144;8.212;2022-12-05T04:21:17;56.03;;;22.20;;
2486;SDS011;1254;49.144;8.212;2022-12-05T04:24:04;58.15;;;21.05;;
2486;SDS011;1254;49.144;8.212;2022-12-05T04:26:54;54.35;;;20.65;;
2486;SDS011;1254;49.144;8.212;2022-12-05T04:29:33;55.70;;;21.30;;
2486;SDS011;1254;49.144;8.212;2022-12-05T04:32:06;51.50;;;20.58;;
2486;SDS011;1254;49.144;8.212;2022-12-05T04:34:38;56.83;;;20.38;;
2486;SDS011;1254;49.144;8.212;2022-12-05T04:37:09;53.53;;;20.05;;
2486;SDS011;1254;49.144;8.212;2022-12-05T04:39:40;51.08;;;20.05;;
2486;SDS011;1254;49.144;8.212;2022-12-05T04:42:14;58.72;;;20.90;;
2486;SDS011;1254;49.144;8.212;2022-12-05T04:44:46;52.95;;;20.63;;
2486;SDS011;1254;49.144;8.212;2022-12-05T04:47:17;56.20;;;21.65;;
2486;SDS011;1254;49.144;8.212;2022-12-05T04:49:49;49.38;;;19.38;;
2486;SDS011;1254;49.144;8.212;2022-12-05T04:52:18;44.83;;;20.08;;
2486;SDS011;1254;49.144;8.212;2022-12-05T04:54:48;48.67;;;20.67;;
2486;SDS011;1254;49.144;8.212;2022-12-05T04:57:20;66.90;;;21.60;;
2486;SDS011;1254;49.144;8.212;2022-12-05T04:59:51;67.18;;;22.25;;
2486;SDS011;1254;49.144;8.212;2022-12-05T05:02:20;61.10;;;22.50;;
2486;SDS011;1254;49.144;8.212;2022-12-05T05:04:55;57.33;;;21.73;;
2486;SDS011;1254;49.144;8.212;2022-12-05T05:07:26;53.75;;;21.58;;
2486;SDS011;1254;49.144;8.212;2022-12-05T05:09:54;54.83;;;22.88;;
2486;SDS011;1254;49.144;8.212;2022-12-05T05:12:22;61.72;;;22.77;;
2486;SDS011;1254;49.144;8.212;2022-12-05T05:14:50;49.00;;;19.00;;
2486;SDS011;1254;49.144;8.212;2022-12-05T05:17:18;60.80;;;21.70;;
2486;SDS011;1254;49.144;8.212;2022-12-05T05:19:46;47.47;;;21.17;;
2486;SDS011;1254;49.144;8.212;2022-12-05T05:22:15;64.70;;;21.63;;
2486;SDS011;1254;49.144;8.212;2022-12-05T05:24:43;67.72;;;22.20;;
2486;SDS011;1254;49.144;8.212;2022-12-05T05:27:11;53.15;;;21.42;;
2486;SDS011;1254;49.144;8.212;2022-12-05T05:29:39;63.75;;;21.63;;
2486;SDS011;1254;49.144;8.212;2022-12-05T05:32:07;55.15;;;22.92;;
2486;SDS011;1254;49.144;8.212;2022-12-05T05:34:34;48.47;;;20.50;;
2486;SDS011;1254;49.144;8.212;2022-12-05T05:37:02;47.38;;;20.73;;
2486;SDS011;1254;49.144;8.212;2022-12-05T05:39:32;59.03;;;21.05;;
2486;SDS011;1254;49.144;8.212;2022-12-05T05:42:00;59.55;;;20.75;;
2486;SDS011;1254;49.144;8.212;2022-12-05T05:44:28;52.28;;;20.70;;
2486;SDS011;1254;49.144;8.212;2022-12-05T05:46:55;55.75;;;20.77;;
2486;SDS011;1254;49.144;8.212;2022-12-05T05:49:23;45.25;;;21.13;;
2486;SDS011;1254;49.144;8.212;2022-12-05T05:51:51;49.50;;;21.20;;
2486;SDS011;1254;49.144;8.212;2022-12-05T05:54:19;48.65;;;20.52;;
2486;SDS011;1254;49.144;8.212;2022-12-05T05:56:48;63.17;;;21.60;;
2486;SDS011;1254;49.144;8.212;2022-12-05T05:59:16;55.55;;;20.77;;
2486;SDS011;1254;49.144;8.212;2022-12-05T06:01:44;54.22;;;21.92;;
2486;SDS011;1254;49.144;8.212;2022-12-05T06:04:12;47.28;;;21.25;;
2486;SDS011;1254;49.144;8.212;2022-12-05T06:06:40;62.47;;;23.80;;
2486;SDS011;1254;49.144;8.212;2022-12-05T06:09:08;47.83;;;21.17;;
2486;SDS011;1254;49.144;8.212;2022-12-05T06:11:36;53.58;;;21.35;;
2486;SDS011;1254;49.144;8.212;2022-12-05T06:14:05;50.47;;;21.48;;
2486;SDS011;1254;49.144;8.212;2022-12-05T06:16:33;49.70;;;20.73;;
2486;SDS011;1254;49.144;8.212;2022-12-05T06:19:01;50.60;;;20.35;;
2486;SDS011;1254;49.144;8.212;2022-12-05T06:21:29;44.65;;;21.15;;
2486;SDS011;1254;49.144;8.212;2022-12-05T06:23:57;52.65;;;21.77;;
2486;SDS011;1254;49.144;8.212;2022-12-05T06:26:25;48.05;;;19.65;;
2486;SDS011;1254;49.144;8.212;2022-12-05T06:28:53;46.35;;;21.85;;
2486;SDS011;1254;49.144;8.212;2022-12-05T06:31:22;45.60;;;20.10;;
2486;SDS011;1254;49.144;8.212;2022-12-05T06:33:52;43.03;;;19.30;;
2486;SDS011;1254;49.144;8.212;2022-12-05T06:36:20;46.63;;;20.70;;
2486;SDS011;1254;49.144;8.212;2022-12-05T06:38:48;45.75;;;22.08;;
2486;SDS011;1254;49.144;8.212;2022-12-05T06:41:17;46.88;;;22.92;;
2486;SDS011;1254;49.144;8.212;2022-12-05T06:43:46;52.40;;;21.35;;
2486;SDS011;1254;49.144;8.212;2022-12-05T06:46:14;51.78;;;21.35;;
2486;SDS011;1254;49.144;8.212;2022-12-05T06:48:43;48.40;;;22.05;;
2486;SDS011;1254;49.144;8.212;2022-12-05T06:51:12;50.72;;;22.15;;
2486;SDS011;1254;49.144;8.212;2022-12-05T06:53:42;51.30;;;24.25;;
2486;SDS011;1254;49.144;8.212;2022-12-05T06:56:11;50.70;;;23.50;;
2486;SDS011;1254;49.144;8.212;2022-12-05T06:58:40;40.15;;;20.08;;
2486;SDS011;1254;49.144;8.212;2022-12-05T07:01:10;45.55;;;20.48;;
2486;SDS011;1254;49.144;8.212;2022-12-05T07:03:56;39.55;;;19.85;;
2486;SDS011;1254;49.144;8.212;2022-12-05T07:06:24;45.55;;;21.08;;
2486;SDS011;1254;49.144;8.212;2022-12-05T07:08:53;42.42;;;20.10;;
2486;SDS011;1254;49.144;8.212;2022-12-05T07:11:21;44.33;;;20.40;;
2486;SDS011;1254;49.144;8.212;2022-12-05T07:13:49;46.30;;;23.70;;
2486;SDS011;1254;49.144;8.212;2022-12-05T07:16:17;45.72;;;20.80;;
2486;SDS011;1254;49.144;8.212;2022-12-05T07:18:45;49.53;;;22.15;;
2486;SDS011;1254;49.144;8.212;2022-12-05T07:21:14;40.55;;;20.00;;
2486;SDS011;1254;49.144;8.212;2022-12-05T07:23:43;40.33;;;20.85;;
2486;SDS011;1254;49.144;8.212;2022-12-05T07:26:14;34.50;;;19.48;;
2486;SDS011;1254;49.144;8.212;2022-12-05T07:28:43;50.88;;;22.83;;
2486;SDS011;1254;49.144;8.212;2022-12-05T07:31:13;42.55;;;20.45;;
2486;SDS011;1254;49.144;8.212;2022-12-05T07:33:42;35.80;;;20.25;;
2486;SDS011;1254;49.144;8.212;2022-12-05T07:36:11;37.33;;;20.42;;
2486;SDS011;1254;49.144;8.212;2022-12-05T07:38:42;40.20;;;21.50;;
2486;SDS011;1254;49.144;8.212;2022-12-05T07:41:12;50.78;;;24.88;;
2486;SDS011;1254;49.144;8.212;2022-12-05T07:43:42;45.97;;;22.45;;
2486;SDS011;1254;49.144;8.212;2022-12-05T07:46:09;42.55;;;21.38;;
2486;SDS011;1254;49.144;8.212;2022-12-05T07:48:37;43.42;;;21.90;;
2486;SDS011;1254;49.144;8.212;2022-12-05T07:51:07;45.75;;;21.60;;
2486;SDS011;1254;49.144;8.212;2022-12-05T07:53:36;49.70;;;23.65;;
2486;SDS011;1254;49.144;8.212;2022-12-05T07:56:08;44.58;;;22.58;;
2486;SDS011;1254;49.144;8.212;2022-12-05T07:58:39;39.45;;;20.75;;
2486;SDS011;1254;49.144;8.212;2022-12-05T08:01:07;52.10;;;22.02;;
2486;SDS011;1254;49.144;8.212;2022-12-05T08:03:36;43.92;;;23.55;;
2486;SDS011;1254;49.144;8.212;2022-12-05T08:06:05;72.25;;;25.40;;
2486;SDS011;1254;49.144;8.212;2022-12-05T08:08:35;37.50;;;21.63;;
2486;SDS011;1254;49.144;8.212;2022-12-05T08:11:03;43.97;;;22.67;;
2486;SDS011;1254;49.144;8.212;2022-12-05T08:13:33;50.25;;;22.33;;
2486;SDS011;1254;49.144;8.212;2022-12-05T08:16:02;44.92;;;20.88;;
2486;SDS011;1254;49.144;8.212;2022-12-05T08:18:30;41.53;;;20.80;;
2486;SDS011;1254;49.144;8.212;2022-12-05T08:21:00;42.20;;;21.90;;
2486;SDS011;1254;49.144;8.212;2022-12-05T08:23:28;39.15;;;19.83;;
2486;SDS011;1254;49.144;8.212;2022-12-05T08:25:59;45.58;;;20.45;;
2486;SDS011;1254;49.144;8.212;2022-12-05T08:28:29;37.92;;;21.67;;
2486;SDS011;1254;49.144;8.212;2022-12-05T08:31:03;46.70;;;21.05;;
2486;SDS011;1254;49.144;8.212;2022-12-05T08:33:31;37.90;;;20.17;;
2486;SDS011;1254;49.144;8.212;2022-12-05T08:35:59;36.25;;;19.85;;
2486;SDS011;1254;49.144;8.212;2022-12-05T08:38:28;40.55;;;20.70;;
2486;SDS011;1254;49.144;8.212;2022-12-05T08:40:59;35.05;;;19.95;;
2486;SDS011;1254;49.144;8.212;2022-12-05T08:43:27;38.05;;;20.60;;
2486;SDS011;1254;49.144;8.212;2022-12-05T08:45:55;36.67;;;20.25;;
2486;SDS011;1254;49.144;8.212;2022-12-05T08:48:24;44.10;;;20.80;;
2486;SDS011;1254;49.144;8.212;2022-12-05T08:50:53;36.85;;;20.25;;
2486;SDS011;1254;49.144;8.212;2022-12-05T08:53:21;32.83;;;19.65;;
2486;SDS011;1254;49.144;8.212;2022-12-05T08:55:49;35.67;;;20.30;;
2486;SDS011;1254;49.144;8.212;2022-12-05T08:58:17;35.45;;;19.90;;
2486;SDS011;1254;49.144;8.212;2022-12-05T09:00:45;32.25;;;18.98;;
2486;SDS011;1254;49.144;8.212;2022-12-05T09:03:13;30.45;;;19.25;;
2486;SDS011;1254;49.144;8.212;2022-12-05T09:05:42;35.70;;;20.15;;
2486;SDS011;1254;49.144;8.212;2022-12-05T09:08:10;41.20;;;18.35;;
2486;SDS011;1254;49.144;8.212;2022-12-05T09:10:38;32.25;;;18.42;;
2486;SDS011;1254;49.144;8.212;2022-12-05T09:13:06;35.88;;;20.10;;
2486;SDS011;1254;49.144;8.212;2022-12-05T09:15:36;30.20;;;17.92;;
2486;SDS011;1254;49.144;8.212;2022-12-05T09:18:04;35.03;;;19.33;;
2486;SDS011;1254;49.144;8.212;2022-12-05T09:20:32;35.92;;;19.38;;
2486;SDS011;1254;49.144;8.212;2022-12-05T09:23:01;30.35;;;17.40;;
2486;SDS011;1254;49.144;8.212;2022-12-05T09:25:29;33.13;;;18.55;;
2486;SDS011;1254;49.144;8.212;2022-12-05T09:27:57;30.65;;;18.45;;
2486;SDS011;1254;49.144;8.212;2022-12-05T09:30:25;32.35;;;17.85;;
2486;SDS011;1254;49.144;8.212;2022-12-05T09:32:53;28.67;;;17.30;;
2486;SDS011;1254;49.144;8.212;2022-12-05T09:35:21;30.50;;;18.42;;
2486;SDS011;1254;49.144;8.212;2022-12-05T09:37:49;31.85;;;18.90;;
2486;SDS011;1254;49.144;8.212;2022-12-05T09:40:18;30.08;;;17.52;;
2486;SDS011;1254;49.144;8.212;2022-12-05T09:42:51;33.63;;;19.48;;
2486;SDS011;1254;49.144;8.212;2022-12-05T09:45:25;29.00;;;18.30;;
2486;SDS011;1254;49.144;8.212;2022-12-05T09:47:59;31.90;;;18.83;;
2486;SDS011;1254;49.144;8.212;2022-12-05T09:50:33;29.92;;;17.67;;
2486;SDS011;1254;49.144;8.212;2022-12-05T09:53:22;27.92;;;17.38;;
2486;SDS011;1254;49.144;8.212;2022-12-05T09:55:56;33.25;;;20.60;;
2486;SDS011;1254;49.144;8.212;2022-12-05T09:58:30;32.25;;;19.15;;
2486;SDS011;1254;49.144;8.212;2022-12-05T10:01:11;34.95;;;19.98;;
2486;SDS011;1254;49.144;8.212;2022-12-05T10:03:56;32.35;;;19.67;;
2486;SDS011;1254;49.144;8.212;2022-12-05T10:06:34;31.65;;;16.85;;
2486;SDS011;1254;49.144;8.212;2022-12-05T10:09:11;32.30;;;20.77;;
2486;SDS011;1254;49.144;8.212;2022-12-05T10:11:53;37.78;;;18.67;;
2486;SDS011;1254;49.144;8.212;2022-12-05T10:14:30;35.67;;;19.77;;
2486;SDS011;1254;49.144;8.212;2022-12-05T10:17:08;29.58;;;17.75;;
2486;SDS011;1254;49.144;8.212;2022-12-05T10:19:43;32.97;;;18.90;;
2486;SDS011;1254;49.144;8.212;2022-12-05T10:22:14;36.58;;;19.92;;
2486;SDS011;1254;49.144;8.212;2022-12-05T10:24:46;35.78;;;20.67;;
2486;SDS011;1254;49.144;8.212;2022-12-05T10:27:20;30.15;;;18.58;;
2486;SDS011;1254;49.144;8.212;2022-12-05T10:29:56;30.83;;;17.60;;
2486;SDS011;1254;49.144;8.212;2022-12-05T10:32:29;34.33;;;18.88;;
2486;SDS011;1254;49.144;8.212;2022-12-05T10:35:11;31.40;;;18.98;;
2486;SDS011;1254;49.144;8.212;2022-12-05T10:37:42;36.53;;;21.33;;
2486;SDS011;1254;49.144;8.212;2022-12-05T10:40:13;35.28;;;20.20;;
2486;SDS011;1254;49.144;8.212;2022-12-05T10:42:43;28.60;;;18.25;;
2486;SDS011;1254;49.144;8.212;2022-12-05T10:45:15;31.85;;;19.00;;
2486;SDS011;1254;49.144;8.212;2022-12-05T10:47:45;30.10;;;18.38;;
2486;SDS011;1254;49.144;8.212;2022-12-05T10:50:18;27.85;;;16.33;;
2486;SDS011;1254;49.144;8.212;2022-12-05T10:52:50;30.17;;;19.30;;
2486;SDS011;1254;49.144;8.212;2022-12-05T10:55:19;29.63;;;18.65;;
2486;SDS011;1254;49.144;8.212;2022-12-05T10:57:50;29.30;;;17.80;;
2486;SDS011;1254;49.144;8.212;2022-12-05T11:00:34;30.88;;;19.60;;
2486;SDS011;1254;49.144;8.212;2022-12-05T11:03:02;28.88;;;18.10;;
2486;SDS011;1254;49.144;8.212;2022-12-05T11:05:31;33.67;;;18.63;;
2486;SDS011;1254;49.144;8.212;2022-12-05T11:08:01;30.05;;;18.17;;
2486;SDS011;1254;49.144;8.212;2022-12-05T11:10:29;31.73;;;17.05;;
2486;SDS011;1254;49.144;8.212;2022-12-05T11:13:01;30.42;;;17.17;;
2486;SDS011;1254;49.144;8.212;2022-12-05T11:15:43;26.45;;;16.52;;
2486;SDS011;1254;49.144;8.212;2022-12-05T11:18:21;29.48;;;15.55;;
2486;SDS011;1254;49.144;8.212;2022-12-05T11:20:54;30.33;;;17.05;;
2486;SDS011;1254;49.144;8.212;2022-12-05T11:23:34;27.25;;;16.30;;
2486;SDS011;1254;49.144;8.212;2022-12-05T11:26:02;27.77;;;16.52;;
2486;SDS011;1254;49.144;8.212;2022-12-05T11:28:32;28.50;;;17.17;;
2486;SDS011;1254;49.144;8.212;2022-12-05T11:31:03;26.58;;;16.90;;
2486;SDS011;1254;49.144;8.212;2022-12-05T11:33:33;25.77;;;15.75;;
2486;SDS011;1254;49.144;8.212;2022-12-05T11:36:04;22.63;;;14.38;;
2486;SDS011;1254;49.144;8.212;2022-12-05T11:38:37;24.23;;;15.50;;
2486;SDS011;1254;49.144;8.212;2022-12-05T11:41:16;23.73;;;14.57;;
2486;SDS011;1254;49.144;8.212;2022-12-05T11:44:04;22.92;;;14.77;;
2486;SDS011;1254;49.144;8.212;2022-12-05T11:46:46;19.88;;;13.27;;
2486;SDS011;1254;49.144;8.212;2022-12-05T11:49:32;22.83;;;15.05;;
2486;SDS011;1254;49.144;8.212;2022-12-05T11:52:12;24.25;;;13.77;;
2486;SDS011;1254;49.144;8.212;2022-12-05T11:54:57;18.90;;;12.43;;
2486;SDS011;1254;49.144;8.212;2022-12-05T11:57:40;22.13;;;13.95;;
2486;SDS011;1254;49.144;8.212;2022-12-05T12:00:20;22.30;;;13.38;;
2486;SDS011;1254;49.144;8.212;2022-12-05T12:03:03;18.98;;;13.35;;
2486;SDS011;1254;49.144;8.212;2022-12-05T12:05:48;19.35;;;14.27;;
2486;SDS011;1254;49.144;8.212;2022-12-05T12:08:25;19.27;;;12.75;;
2486;SDS011;1254;49.144;8.212;2022-12-05T12:10:56;20.65;;;13.85;;
2486;SDS011;1254;49.144;8.212;2022-12-05T12:13:40;16.60;;;12.73;;
2486;SDS011;1254;49.144;8.212;2022-12-05T12:16:21;16.52;;;12.05;;
2486;SDS011;1254;49.144;8.212;2022-12-05T12:22:02;15.25;;;12.05;;
2486;SDS011;1254;49.144;8.212;2022-12-05T12:24:47;21.08;;;12.48;;
2486;SDS011;1254;49.144;8.212;2022-12-05T12:27:30;20.13;;;11.25;;
2486;SDS011;1254;49.144;8.212;2022-12-05T12:30:10;21.00;;;13.68;;
2486;SDS011;1254;49.144;8.212;2022-12-05T12:32:46;24.35;;;12.75;;
2486;SDS011;1254;49.144;8.212;2022-12-05T12:35:28;19.23;;;12.10;;
2486;SDS011;1254;49.144;8.212;2022-12-05T12:38:01;22.15;;;13.35;;
2486;SDS011;1254;49.144;8.212;2022-12-05T12:40:42;19.38;;;14.18;;
2486;SDS011;1254;49.144;8.212;2022-12-05T12:43:18;17.15;;;11.85;;
2486;SDS011;1254;49.144;8.212;2022-12-05T12:45:55;12.75;;;9.90;;
2486;SDS011;1254;49.144;8.212;2022-12-05T12:48:43;19.25;;;10.52;;
2486;SDS011;1254;49.144;8.212;2022-12-05T12:51:30;21.00;;;12.90;;
2486;SDS011;1254;49.144;8.212;2022-12-05T12:54:05;22.55;;;13.10;;
2486;SDS011;1254;49.144;8.212;2022-12-05T12:56:46;15.20;;;12.00;;
2486;SDS011;1254;49.144;8.212;2022-12-05T12:59:26;14.65;;;11.50;;
2486;SDS011;1254;49.144;8.212;2022-12-05T13:02:10;11.48;;;8.40;;
2486;SDS011;1254;49.144;8.212;2022-12-05T13:04:47;11.38;;;8.40;;
2486;SDS011;1254;49.144;8.212;2022-12-05T13:07:20;11.55;;;9.00;;
2486;SDS011;1254;49.144;8.212;2022-12-05T13:09:53;12.15;;;9.18;;
2486;SDS011;1254;49.144;8.212;2022-12-05T13:12:27;12.90;;;8.75;;
2486;SDS011;1254;49.144;8.212;2022-12-05T13:15:00;10.88;;;8.02;;
2486;SDS011;1254;49.144;8.212;2022-12-05T13:17:32;6.45;;;5.43;;
2486;SDS011;1254;49.144;8.212;2022-12-05T13:20:01;5.40;;;4.80;;
2486;SDS011;1254;49.144;8.212;2022-12-05T13:22:30;4.50;;;4.10;;
2486;SDS011;1254;49.144;8.212;2022-12-05T13:24:58;16.33;;;4.78;;
2486;SDS011;1254;49.144;8.212;2022-12-05T13:27:26;4.70;;;4.30;;
2486;SDS011;1254;49.144;8.212;2022-12-05T13:29:54;4.32;;;3.92;;
2486;SDS011;1254;49.144;8.212;2022-12-05T13:32:28;4.70;;;3.83;;
2486;SDS011;1254;49.144;8.212;2022-12-05T13:34:59;4.60;;;3.88;;
2486;SDS011;1254;49.144;8.212;2022-12-05T13:37:34;5.20;;;4.70;;
2486;SDS011;1254;49.144;8.212;2022-12-05T13:40:21;7.40;;;4.35;;
2486;SDS011;1254;49.144;8.212;2022-12-05T13:43:10;4.38;;;4.00;;
2486;SDS011;1254;49.144;8.212;2022-12-05T13:45:40;4.32;;;3.92;;
2486;SDS011;1254;49.144;8.212;2022-12-05T13:48:25;5.80;;;4.40;;
2486;SDS011;1254;49.144;8.212;2022-12-05T13:50:57;5.40;;;4.07;;
2486;SDS011;1254;49.144;8.212;2022-12-05T13:53:31;5.50;;;4.07;;
2486;SDS011;1254;49.144;8.212;2022-12-05T13:56:04;5.78;;;4.78;;
2486;SDS011;1254;49.144;8.212;2022-12-05T14:01:40;5.93;;;5.22;;
2486;SDS011;1254;49.144;8.212;2022-12-05T14:04:40;6.10;;;4.60;;
2486;SDS011;1254;49.144;8.212;2022-12-05T14:07:34;5.03;;;3.90;;
2486;SDS011;1254;49.144;8.212;2022-12-05T14:10:14;7.57;;;4.47;;
2486;SDS011;1254;49.144;8.212;2022-12-05T14:12:52;3.83;;;3.45;;
2486;SDS011;1254;49.144;8.212;2022-12-05T14:15:25;3.58;;;3.28;;
2486;SDS011;1254;49.144;8.212;2022-12-05T14:17:55;4.65;;;3.00;;
2486;SDS011;1254;49.144;8.212;2022-12-05T14:20:30;3.92;;;3.63;;
2486;SDS011;1254;49.144;8.212;2022-12-05T14:23:14;3.40;;;2.90;;
2486;SDS011;1254;49.144;8.212;2022-12-05T14:25:58;4.28;;;2.70;;
2486;SDS011;1254;49.144;8.212;2022-12-05T14:28:41;2.97;;;2.20;;
2486;SDS011;1254;49.144;8.212;2022-12-05T14:31:22;2.05;;;1.85;;
2486;SDS011;1254;49.144;8.212;2022-12-05T14:34:12;4.25;;;3.95;;
2486;SDS011;1254;49.144;8.212;2022-12-05T14:36:51;4.00;;;3.60;;
2486;SDS011;1254;49.144;8.212;2022-12-05T14:39:27;2.50;;;2.30;;
2486;SDS011;1254;49.144;8.212;2022-12-05T14:42:04;3.05;;;2.33;;
2486;SDS011;1254;49.144;8.212;2022-12-05T14:44:45;4.15;;;2.78;;
2486;SDS011;1254;49.144;8.212;2022-12-05T14:47:16;5.80;;;2.35;;
2486;SDS011;1254;49.144;8.212;2022-12-05T14:49:53;3.30;;;3.00;;
2486;SDS011;1254;49.144;8.212;2022-12-05T14:52:27;2.80;;;2.60;;
2486;SDS011;1254;49.144;8.212;2022-12-05T14:54:59;3.50;;;2.40;;
2486;SDS011;1254;49.144;8.212;2022-12-05T14:57:31;1.88;;;1.75;;
2486;SDS011;1254;49.144;8.212;2022-12-05T15:00:03;5.20;;;3.20;;
2486;SDS011;1254;49.144;8.212;2022-12-05T15:02:34;3.88;;;3.50;;
2486;SDS011;1254;49.144;8.212;2022-12-05T15:05:13;7.88;;;3.20;;
2486;SDS011;1254;49.144;8.212;2022-12-05T15:07:48;8.13;;;3.55;;
2486;SDS011;1254;49.144;8.212;2022-12-05T15:10:20;4.80;;;2.72;;
2486;SDS011;1254;49.144;8.212;2022-12-05T15:12:52;11.98;;;3.45;;
2486;SDS011;1254;49.144;8.212;2022-12-05T15:15:24;5.15;;;3.80;;
2486;SDS011;1254;49.144;8.212;2022-12-05T15:18:02;6.25;;;3.83;;
2486;SDS011;1254;49.144;8.212;2022-12-05T15:20:41;6.47;;;4.15;;
2486;SDS011;1254;49.144;8.212;2022-12-05T15:26:15;10.40;;;6.47;;
2486;SDS011;1254;49.144;8.212;2022-12-05T15:28:58;5.40;;;4.43;;
2486;SDS011;1254;49.144;8.212;2022-12-05T15:31:28;5.70;;;5.20;;
2486;SDS011;1254;49.144;8.212;2022-12-05T15:34:00;5.40;;;4.20;;
2486;SDS011;1254;49.144;8.212;2022-12-05T15:36:33;4.50;;;4.07;;